默认 日期 大小 文件数 浏览量 最新下载 xml
chibi磁力链接相关资源由用户搜索指令自动获取,结果来源于网络,本站不存储任何资料,亦不承担任何责任,请于24小时内删除,搜索到573个磁力,用时1ms。
    ... zip": 46532356, "[Marukazoku][Chibi Maruko-chan][2021SP][2021. ... ].mkv": 452224767, "[Marukazoku][Chibi Maruko-chan II][1279][2021 ... ].mkv": 266457252, "[Marukazoku][Chibi Maruko-chan II][1280][2021 ... mkv": 281267824, "[Marukazoku][Chibi Maruko-chan II][1281][2021 ...
创建时间: 2021-04-02 07:35:15 大小:1.19 GB 文件数量:5 热度:6 最近下载:2025-03-16 12:52:01
    {"Fonts.zip": 46532356, "[Marukazoku][Chibi Maruko-chan][30th Anniversary SP][2020.01.19][GB_BIG5][hevc 10bit aac][1080P][MKV].mkv": 943331050}
创建时间: 2021-04-09 20:28:51 大小:944.01 MB 文件数量:2 热度:2 最近下载:2025-06-15 08:26:01
    {"7 Scarybug.mp4": 20679495, "3 The Chase.mp4": 25112269, "6 Fatal Posy.mp4": 24842529, "2 Catnip Fragrance.mp4": 23104263, "5 Cutest Cat Fight.mp4": 18243375, "1 Chibi Rooftop Dinner.mp4": 22143411, "4 Curiosity Kicked the Cat.mp4": 23221348}
创建时间: 2021-04-12 15:20:33 大小:150.06 MB 文件数量:7 热度:4 最近下载:2025-09-15 16:36:03
    {"darkzer0.nfo": 19722, "3DMGAME-Chibi.Wars.Kinetic.Novel-DARKZER0.rar": 169519403}
创建时间: 2021-04-16 21:58:30 大小:161.69 MB 文件数量:2 热度:1 最近下载:2025-01-09 20:10:11
    {"[Marukazoku][FNS27_Nihon_no_Rekishi][Chibi Maruko-chan cut][01][GBJP][MP4].mp4": 15575012, "[Marukazoku][FNS27_Nihon_no_Rekishi][Chibi Maruko-chan cut][02][GBJP][MP4].mp4": 20103671}
创建时间: 2021-04-18 21:34:34 大小:34.03 MB 文件数量:2 热度:3 最近下载:2025-08-01 03:41:12
    {"01.jpg": 138306, "02.jpg": 196163, "03.jpg": 191781, "04.jpg": 90552, "05.jpg": 134408, "06.jpg": 150618, "07.jpg": 131841, "08.jpg": 131345, "09.jpg": 162197, "10.jpg": 145802, "11.jpg": 144117, "12.jpg": 134582, "13.jpg": 135922, "14.jpg": 158684, "15. ...
创建时间: 2021-04-19 20:55:29 大小:9.81 MB 文件数量:78 热度:3 最近下载:2025-02-21 09:57:02
    ... mkv": 404373522, "[Marukazoku][Chibi Maruko-chan I][011][Digital ... mkv": 425800939, "[Marukazoku][Chibi Maruko-chan I][012][Digital ... mkv": 445033036, "[Marukazoku][Chibi Maruko-chan I][013][Digital ... mkv": 501828179, "[Marukazoku][Chibi Maruko-chan I][014][Digital ...
创建时间: 2021-04-22 07:37:29 大小:2.5 GB 文件数量:7 热度:4 最近下载:2025-04-11 14:35:02
    ... zip": 46532356, "[Marukazoku][Chibi Maruko-chan II][1282][ ... ].mkv": 282069794, "[Marukazoku][Chibi Maruko-chan II][1283][2021 ... ].mkv": 293485940, "[Marukazoku][Chibi Maruko-chan II][1284][2021 ... ].mkv": 251672278, "[Marukazoku][Chibi Maruko-chan II][1285][2021 ...
创建时间: 2021-04-28 13:49:29 大小:1.06 GB 文件数量:5 热度:7 最近下载:2025-04-24 09:56:01
    ... Fonts.zip": 46532356, "[Marukazoku][Chibi Maruko-chan][2018_Christmas_SP][V2][2018 ... ][MP4].mp4": 362026402, "[Marukazoku][Chibi Maruko-chan][2018_Christmas_SP][2018.12 ... 1080P][MKV].mkv": 744746093, "[Marukazoku][Chibi Maruko-chan][2018_Christmas_SP][V2][2018 ...
创建时间: 2021-05-19 18:18:11 大小:1.41 GB 文件数量:4 热度:2 最近下载:2025-01-26 03:41:03
    ... ": 54146118, "80.mp4": 50296114, "Movies": {"Chibi Maruko-chan (1990).avi": 924235776 ... , "Chibi Maruko-chan - Watashi no Suki ...
创建时间: 2021-05-20 23:50:27 大小:7.24 GB 文件数量:89 热度:4 最近下载:2025-06-25 11:34:02
    ... ].mkv": 243571701, "[Marukazoku][Chibi Maruko-chan II][1287][2021 ... ].mkv": 251778687, "[Marukazoku][Chibi Maruko-chan II][1288][2021 ... mkv": 269978438, "[Marukazoku][Chibi Maruko-chan II][1289][2021 ... mkv": 284884829, "[Marukazoku][Chibi Maruko-chan II][1290][2021 ...
创建时间: 2021-05-31 19:54:25 大小:1.27 GB 文件数量:6 热度:5 最近下载:2025-07-17 22:34:01
    {"01.jpg": 510460, "02.jpg": 9120, "03.jpg": 338664, "04.jpg": 451989, "05.jpg": 367699, "06.jpg": 349116, "07.jpg": 383175, "08.jpg": 338942, "09.jpg": 286733, "10.jpg": 442924, "11.jpg": 429127, "12.jpg": 474177, "13.jpg": 288837, "14.jpg": 375800, "15. ...
创建时间: 2021-06-11 08:43:20 大小:16.69 MB 文件数量:48 热度:7 最近下载:2025-07-28 21:03:04
    ... mkv": 416166839, "[Marukazoku][Chibi Maruko-chan I][017][Digital ... mkv": 410928840, "[Marukazoku][Chibi Maruko-chan I][018][Digital ... mkv": 411446557, "[Marukazoku][Chibi Maruko-chan I][019][Digital ... mkv": 409211376, "[Marukazoku][Chibi Maruko-chan I][020][Digital ...
创建时间: 2021-06-11 08:49:31 大小:3.99 GB 文件数量:11 热度:9 最近下载:2025-08-09 02:24:01
    {"1:K11_001.jpg": 3772123, "2:K11_002.jpg": 2954343, "3:K11_003.jpg": 3704196, "4:K11_004.jpg": 3591824, "5:K11_005.jpg": 3851136, "6:K11_006.jpg": 4240796, "7:K11_007.jpg": 3421124, "8:K11_008.jpg": 2590686, "9:K11_009.jpg": 3345676}
创建时间: 2021-06-14 05:36:22 大小:30.01 MB 文件数量:9 热度:3 最近下载:2025-01-02 11:43:11
    {"01.jpg": 519813, "02.jpg": 9120, "03.jpg": 340266, "04.jpg": 459331, "05.jpg": 373033, "06.jpg": 351271, "07.jpg": 385786, "08.jpg": 342787, "09.jpg": 289046, "10.jpg": 444512, "11.jpg": 427803, "12.jpg": 474177, "13.jpg": 292055, "14.jpg": 378755, "15. ...
创建时间: 2021-06-15 10:54:31 大小:16.86 MB 文件数量:49 热度:13 最近下载:2025-08-02 08:12:03
    {"[Marukazoku][Chibi Maruko-chan II][348][2001.11.25][HDTVRip][GB][576P][MP4].mp4": 97779502, "[Marukazoku][Chibi Maruko-chan II][349][2001.12.02][HDTVRip][GB][576P][MP4].mp4": 103601021}
创建时间: 2021-06-17 16:58:22 大小:192.05 MB 文件数量:2 热度:3 最近下载:2025-02-09 10:51:06
    {"[Marukazoku][Chibi Maruko-chan II][348][2001.11.25][HDTVRip][BIG5][576P][MP4].mp4": 97800134, "[Marukazoku][Chibi Maruko-chan II][349][2001.12.02][HDTVRip][BIG5][576P][MP4].mp4": 103646135}
创建时间: 2021-06-17 23:52:10 大小:192.11 MB 文件数量:2 热度:4 最近下载:2025-08-17 04:56:01
    ... WEBRip 1080p].mkv": 956944452, "Chibi Maruko-chan - 794 [WEBRip ... 1080p].mkv": 957037715, "Chibi Maruko-chan - 795 [WEBRip ... 1080p].mkv": 958295067, "Chibi Maruko-chan - 796 [WEBRip ... 1080p].mkv": 955791083, "Chibi Maruko-chan - 797 [WEBRip ...
创建时间: 2021-06-24 17:36:04 大小:42.74 GB 文件数量:48 热度:11 最近下载:2025-06-28 07:18:01
    ... ].mp4": 148039343, "[Marukazoku][Chibi Maruko-chan II][1273][2021 ... ].mp4": 152087454, "[Marukazoku][Chibi Maruko-chan II][1274][2021 ... mp4": 156349952, "[Marukazoku][Chibi Maruko-chan II][1275][2021 ... mp4": 147276260, "[Marukazoku][Chibi Maruko-chan II][1276][2021 ...
创建时间: 2021-06-25 13:15:37 大小:1022.77 MB 文件数量:7 热度:3 最近下载:2025-07-12 22:29:02
    ... ].mp4": 153942339, "[Marukazoku][Chibi Maruko-chan II][1273][2021 ... ].mp4": 152168061, "[Marukazoku][Chibi Maruko-chan II][1274][2021 ... mp4": 156418680, "[Marukazoku][Chibi Maruko-chan II][1275][2021 ... mp4": 147343549, "[Marukazoku][Chibi Maruko-chan II][1276][2021 ...
创建时间: 2021-06-25 18:02:18 大小:1 GB 文件数量:7 热度:5 最近下载:2025-07-08 23:40:02